createdAt,value
2018-09-13T00:00:32.427Z,16.00
2018-09-13T00:03:01.112Z,16.20
2018-09-13T00:05:29.664Z,16.20
2018-09-13T00:07:58.260Z,16.10
2018-09-13T00:10:26.852Z,15.80
2018-09-13T00:12:55.449Z,15.80
2018-09-13T00:15:24.039Z,15.80
2018-09-13T00:17:52.655Z,16.00
2018-09-13T00:20:21.272Z,16.10
2018-09-13T00:22:49.989Z,16.40
2018-09-13T00:25:18.615Z,16.40
2018-09-13T00:27:47.202Z,16.40
2018-09-13T00:30:15.886Z,16.40
2018-09-13T00:32:44.453Z,16.40
2018-09-13T00:35:13.064Z,16.40
2018-09-13T00:37:41.683Z,16.20
2018-09-13T00:40:10.285Z,16.30
2018-09-13T00:42:38.978Z,16.20
2018-09-13T00:45:07.601Z,16.20
2018-09-13T00:47:40.516Z,16.10
2018-09-13T00:50:09.132Z,16.20
2018-09-13T00:52:38.952Z,16.20
2018-09-13T00:55:07.537Z,16.10
2018-09-13T00:57:36.656Z,15.70
2018-09-13T01:00:05.556Z,15.80
2018-09-13T01:02:34.566Z,15.80
2018-09-13T01:05:03.220Z,15.90
2018-09-13T01:07:31.860Z,15.90
2018-09-13T01:10:00.459Z,15.80
2018-09-13T01:12:29.097Z,15.80
2018-09-13T01:14:57.751Z,15.60
2018-09-13T01:17:26.369Z,15.50
2018-09-13T01:19:55.077Z,15.50
2018-09-13T01:22:23.726Z,15.50
2018-09-13T01:24:56.095Z,15.40
2018-09-13T01:27:26.420Z,15.20
2018-09-13T01:29:55.127Z,15.30
2018-09-13T01:32:23.937Z,15.30
2018-09-13T01:34:53.263Z,15.40
2018-09-13T01:37:22.026Z,15.40
2018-09-13T01:39:50.650Z,15.30
2018-09-13T01:42:19.244Z,15.30
2018-09-13T01:44:47.918Z,15.30
2018-09-13T01:47:16.535Z,15.40
2018-09-13T01:49:45.141Z,15.10
2018-09-13T01:52:13.759Z,14.90
2018-09-13T01:54:42.354Z,15.10
2018-09-13T01:57:11.006Z,15.00
2018-09-13T01:59:39.664Z,14.90
2018-09-13T02:02:08.299Z,14.90
2018-09-13T02:04:36.893Z,14.70
2018-09-13T02:07:05.551Z,14.80
2018-09-13T02:09:34.206Z,14.80
2018-09-13T02:12:02.851Z,15.00
2018-09-13T02:14:31.491Z,14.90
2018-09-13T02:17:00.151Z,14.90
2018-09-13T02:19:28.780Z,15.00
2018-09-13T02:21:57.395Z,15.00
2018-09-13T02:24:26.060Z,15.10
2018-09-13T02:26:54.747Z,14.90
2018-09-13T02:29:23.346Z,14.50
2018-09-13T02:31:51.953Z,14.30
2018-09-13T02:34:20.587Z,14.60
2018-09-13T02:36:49.228Z,14.80
2018-09-13T02:39:17.842Z,14.80
2018-09-13T02:41:46.530Z,14.80
2018-09-13T02:44:15.256Z,14.80
2018-09-13T02:46:43.891Z,14.90
2018-09-13T02:49:12.603Z,14.80
2018-09-13T02:51:41.237Z,14.80
2018-09-13T02:54:09.894Z,14.70
2018-09-13T02:56:38.542Z,14.80
2018-09-13T02:59:07.348Z,14.70
2018-09-13T03:01:36.008Z,14.30
2018-09-13T03:04:04.675Z,14.40
2018-09-13T03:06:33.347Z,14.30
2018-09-13T03:09:02.052Z,14.20
2018-09-13T03:11:30.683Z,14.40
2018-09-13T03:13:59.328Z,14.30
2018-09-13T03:16:27.932Z,14.30
2018-09-13T03:18:56.658Z,14.00
2018-09-13T03:21:25.295Z,14.00
2018-09-13T03:23:53.932Z,14.20
2018-09-13T03:26:22.529Z,14.30
2018-09-13T03:28:51.351Z,14.20
2018-09-13T03:31:19.968Z,14.30
2018-09-13T03:33:48.684Z,14.50
2018-09-13T03:36:17.332Z,14.30
2018-09-13T03:38:45.946Z,14.20
2018-09-13T03:41:14.636Z,14.30
2018-09-13T03:43:43.292Z,14.20
2018-09-13T03:46:11.905Z,14.20
2018-09-13T03:48:40.548Z,14.20
2018-09-13T03:51:09.250Z,14.10
2018-09-13T03:53:37.905Z,14.10
2018-09-13T03:56:06.610Z,13.90
2018-09-13T03:58:35.289Z,13.90
2018-09-13T04:01:03.932Z,13.70
2018-09-13T04:03:32.662Z,13.70
2018-09-13T04:06:01.525Z,13.80
2018-09-13T04:08:30.192Z,13.80
2018-09-13T04:10:58.834Z,14.00
2018-09-13T04:13:27.569Z,14.00
2018-09-13T04:15:56.163Z,14.00
2018-09-13T04:18:24.810Z,13.90
2018-09-13T04:20:53.478Z,13.90
2018-09-13T04:23:22.148Z,13.80
2018-09-13T04:25:50.856Z,13.90
2018-09-13T04:28:19.522Z,14.10
2018-09-13T04:30:48.147Z,14.10
2018-09-13T04:33:16.845Z,14.00
2018-09-13T04:35:45.565Z,13.80
2018-09-13T04:38:14.140Z,13.90
2018-09-13T04:40:42.757Z,13.70
2018-09-13T04:43:11.561Z,13.90
2018-09-13T04:45:41.433Z,13.90
2018-09-13T04:48:10.128Z,13.80
2018-09-13T04:50:38.803Z,13.80
2018-09-13T04:53:07.442Z,13.70
2018-09-13T04:55:36.205Z,13.70
2018-09-13T04:58:05.003Z,13.60
2018-09-13T05:00:33.623Z,13.60
2018-09-13T05:03:02.232Z,13.60
2018-09-13T05:05:30.807Z,13.50
2018-09-13T05:07:59.389Z,13.60
2018-09-13T05:10:27.964Z,13.70
2018-09-13T05:12:56.614Z,13.70
2018-09-13T05:15:25.211Z,13.70
2018-09-13T05:17:53.825Z,13.40
2018-09-13T05:20:22.438Z,13.50
2018-09-13T05:22:51.044Z,13.30
2018-09-13T05:25:19.758Z,13.40
2018-09-13T05:27:48.332Z,13.40
2018-09-13T05:30:16.949Z,13.60
2018-09-13T05:32:46.660Z,13.60
2018-09-13T05:35:15.262Z,13.60
2018-09-13T05:37:43.880Z,13.70
2018-09-13T05:40:12.477Z,13.70
2018-09-13T05:42:41.084Z,13.80
2018-09-13T05:45:09.722Z,14.00
2018-09-13T05:47:38.327Z,13.90
2018-09-13T05:50:06.963Z,13.80
2018-09-13T05:52:35.571Z,13.80
2018-09-13T05:55:04.270Z,14.00
2018-09-13T05:57:32.851Z,14.20
2018-09-13T06:00:01.535Z,14.40
2018-09-13T06:02:30.228Z,14.60
2018-09-13T06:04:58.887Z,14.80
2018-09-13T06:07:27.500Z,14.80
2018-09-13T06:09:56.258Z,14.80
2018-09-13T06:12:24.951Z,14.80
2018-09-13T06:14:53.596Z,14.80
2018-09-13T06:17:22.361Z,15.00
2018-09-13T06:19:51.103Z,15.20
2018-09-13T06:22:19.722Z,15.30
2018-09-13T06:24:48.419Z,15.40
2018-09-13T06:27:17.034Z,15.40
2018-09-13T06:29:45.702Z,15.50
2018-09-13T06:32:14.330Z,15.60
2018-09-13T06:34:42.966Z,15.70
2018-09-13T06:37:11.652Z,15.70
2018-09-13T06:39:40.290Z,15.70
2018-09-13T06:42:08.907Z,15.80
2018-09-13T06:44:37.567Z,15.90
2018-09-13T06:47:06.693Z,15.90
2018-09-13T06:49:35.440Z,15.90
2018-09-13T06:52:04.151Z,16.10
2018-09-13T06:54:32.823Z,16.20
2018-09-13T06:57:01.444Z,16.30
2018-09-13T06:59:30.597Z,16.50
2018-09-13T07:01:59.281Z,16.50
2018-09-13T07:04:28.025Z,16.30
2018-09-13T07:06:56.660Z,16.60
2018-09-13T07:09:25.320Z,16.80
2018-09-13T07:11:53.951Z,16.90
2018-09-13T07:14:22.683Z,17.00
2018-09-13T07:16:51.390Z,16.90
2018-09-13T07:19:20.031Z,17.10
2018-09-13T07:21:48.675Z,17.30
2018-09-13T07:24:17.500Z,17.40
2018-09-13T07:26:46.150Z,17.50
2018-09-13T07:29:14.796Z,17.60
2018-09-13T07:31:43.460Z,17.80
2018-09-13T07:34:12.154Z,18.00
2018-09-13T07:36:40.876Z,18.10
2018-09-13T07:39:11.435Z,18.30
2018-09-13T07:41:40.116Z,18.40
2018-09-13T07:44:08.852Z,18.70
2018-09-13T07:46:37.600Z,19.10
2018-09-13T07:49:06.478Z,19.10
2018-09-13T07:51:35.284Z,19.10
2018-09-13T07:54:04.082Z,19.20
2018-09-13T07:56:32.848Z,19.20
2018-09-13T07:59:01.477Z,19.10
2018-09-13T08:01:30.149Z,18.70
2018-09-13T08:03:58.917Z,19.00
2018-09-13T08:06:27.586Z,19.20
2018-09-13T08:08:56.325Z,19.50
2018-09-13T08:11:25.084Z,19.50
2018-09-13T08:13:53.808Z,19.50
2018-09-13T08:16:22.521Z,19.40
2018-09-13T08:18:51.195Z,19.40
2018-09-13T08:21:20.032Z,19.40
2018-09-13T08:23:48.627Z,19.50
2018-09-13T08:26:17.276Z,19.70
2018-09-13T08:28:45.906Z,19.90
2018-09-13T08:31:14.575Z,20.10
2018-09-13T08:33:43.296Z,20.20
2018-09-13T08:36:11.977Z,20.20
2018-09-13T08:38:41.177Z,20.30
2018-09-13T08:41:09.899Z,20.40
2018-09-13T08:43:38.617Z,20.40
2018-09-13T08:46:07.326Z,20.40
2018-09-13T08:48:36.024Z,20.00
2018-09-13T08:51:04.941Z,20.00
2018-09-13T08:53:33.710Z,20.10
2018-09-13T08:56:02.382Z,20.00
2018-09-13T08:58:31.049Z,20.00
2018-09-13T09:00:59.639Z,20.10
2018-09-13T09:03:28.223Z,20.30
2018-09-13T09:05:57.140Z,20.50
2018-09-13T09:08:25.731Z,20.60
2018-09-13T09:10:54.367Z,20.50
2018-09-13T09:13:22.999Z,20.50
2018-09-13T09:15:51.636Z,20.60
2018-09-13T09:18:20.277Z,20.60
2018-09-13T09:20:48.952Z,20.50
2018-09-13T09:23:17.553Z,20.50
2018-09-13T09:25:46.207Z,20.50
2018-09-13T09:28:14.850Z,20.70
2018-09-13T09:30:43.455Z,20.90
2018-09-13T09:33:12.031Z,21.00
2018-09-13T09:35:40.700Z,21.00
2018-09-13T09:38:09.384Z,21.10
2018-09-13T09:40:38.153Z,21.00
2018-09-13T09:43:07.070Z,21.00
2018-09-13T09:45:35.818Z,21.10
2018-09-13T09:48:04.535Z,21.40
2018-09-13T09:50:33.262Z,21.10
2018-09-13T09:53:02.066Z,21.30
2018-09-13T09:55:30.708Z,21.50
2018-09-13T09:57:59.558Z,21.50
2018-09-13T10:00:33.967Z,21.50
2018-09-13T10:03:02.787Z,21.30
2018-09-13T10:05:31.490Z,21.50
2018-09-13T10:08:00.204Z,21.50
2018-09-13T10:10:29.160Z,21.60
2018-09-13T10:12:58.022Z,21.80
2018-09-13T10:15:31.980Z,21.80
2018-09-13T10:18:05.961Z,21.90
2018-09-13T10:20:40.035Z,21.90
2018-09-13T10:25:17.828Z,21.80
2018-09-13T10:27:51.801Z,21.90
2018-09-13T10:30:25.734Z,21.80
2018-09-13T10:32:59.638Z,22.00
2018-09-13T10:35:33.853Z,21.70
2018-09-13T10:38:07.929Z,21.80
2018-09-13T10:40:42.022Z,21.90
2018-09-13T10:43:16.144Z,22.00
2018-09-13T10:47:56.928Z,21.90
2018-09-13T10:50:25.227Z,21.60
2018-09-13T10:52:58.998Z,21.80
2018-09-13T10:55:28.723Z,21.80
2018-09-13T10:57:57.343Z,22.00
2018-09-13T11:00:26.044Z,22.10
2018-09-13T11:02:54.768Z,22.20
2018-09-13T11:05:23.348Z,22.40
2018-09-13T11:07:51.907Z,22.50
2018-09-13T11:10:20.567Z,22.50
2018-09-13T11:12:54.410Z,22.40
2018-09-13T11:15:28.216Z,22.40
2018-09-13T11:17:56.885Z,22.80
2018-09-13T11:20:26.219Z,22.50
2018-09-13T11:22:55.550Z,22.40
2018-09-13T11:25:25.130Z,22.60
2018-09-13T11:27:54.278Z,21.40
2018-09-13T11:30:22.923Z,21.90
2018-09-13T11:32:51.594Z,22.00
2018-09-13T11:35:20.274Z,22.10
2018-09-13T11:37:48.860Z,21.90
2018-09-13T11:40:17.583Z,22.20
2018-09-13T11:42:46.193Z,22.40
2018-09-13T11:45:14.932Z,22.10
2018-09-13T11:47:43.578Z,22.50
2018-09-13T11:50:12.312Z,23.20
2018-09-13T11:52:40.955Z,23.60
2018-09-13T11:55:09.603Z,23.40
2018-09-13T11:57:38.325Z,23.40
2018-09-13T12:00:07.539Z,23.70
2018-09-13T12:02:36.248Z,22.90
2018-09-13T12:05:05.015Z,22.70
2018-09-13T12:07:33.715Z,23.00
2018-09-13T12:10:02.462Z,23.60
2018-09-13T12:12:31.091Z,23.70
2018-09-13T12:14:59.767Z,23.80
2018-09-13T12:17:28.475Z,23.90
2018-09-13T12:19:57.289Z,23.30
2018-09-13T12:22:25.992Z,23.60
2018-09-13T12:24:54.819Z,23.90
2018-09-13T12:27:23.682Z,23.90
2018-09-13T12:29:52.419Z,23.80
2018-09-13T12:32:24.212Z,24.00
2018-09-13T12:34:52.952Z,24.00
2018-09-13T12:37:21.657Z,24.00
2018-09-13T12:39:50.601Z,24.00
2018-09-13T12:42:19.273Z,23.90
2018-09-13T12:44:48.003Z,23.80
2018-09-13T12:47:16.763Z,23.90
2018-09-13T12:49:45.687Z,23.90
2018-09-13T12:52:14.711Z,23.90
2018-09-13T12:54:43.610Z,23.90
2018-09-13T12:57:12.769Z,23.90
2018-09-13T12:59:41.557Z,23.90
2018-09-13T13:02:10.361Z,23.90
2018-09-13T13:04:39.141Z,23.70
2018-09-13T13:07:07.992Z,23.80
2018-09-13T13:09:36.933Z,23.90
2018-09-13T13:12:05.828Z,23.90
2018-09-13T13:14:34.856Z,24.00
2018-09-13T13:17:03.825Z,24.10
2018-09-13T13:19:32.589Z,24.20
2018-09-13T13:22:01.477Z,24.20
2018-09-13T13:24:30.322Z,24.10
2018-09-13T13:26:59.121Z,24.10
2018-09-13T13:29:28.165Z,24.10
2018-09-13T13:31:57.094Z,24.10
2018-09-13T13:34:25.964Z,23.80
2018-09-13T13:36:55.060Z,23.90
2018-09-13T13:39:23.925Z,24.10
2018-09-13T13:41:52.610Z,24.20
2018-09-13T13:44:21.696Z,24.10
2018-09-13T13:46:50.645Z,24.30
2018-09-13T13:49:19.539Z,24.20
2018-09-13T13:51:48.492Z,24.20
2018-09-13T13:54:17.483Z,24.10
2018-09-13T13:56:46.360Z,23.90
2018-09-13T13:59:15.211Z,24.00
2018-09-13T14:01:43.899Z,23.90
2018-09-13T14:04:12.592Z,24.10
2018-09-13T14:06:41.377Z,23.80
2018-09-13T14:09:12.882Z,23.90
2018-09-13T14:11:41.704Z,23.80
2018-09-13T14:14:10.515Z,23.90
2018-09-13T14:16:39.614Z,23.60
2018-09-13T14:19:08.355Z,23.70
2018-09-13T14:21:37.375Z,23.70
2018-09-13T14:24:06.276Z,23.90
2018-09-13T14:26:35.190Z,23.80
2018-09-13T14:29:03.979Z,23.70
2018-09-13T14:31:33.002Z,23.80
2018-09-13T14:34:01.815Z,23.90
2018-09-13T14:36:30.686Z,24.00
2018-09-13T14:38:59.549Z,23.90
2018-09-13T14:41:28.252Z,23.80
2018-09-13T14:43:57.063Z,23.90
2018-09-13T14:46:26.045Z,23.80
2018-09-13T14:48:54.887Z,23.90
2018-09-13T14:51:23.699Z,23.80
2018-09-13T14:53:52.401Z,23.80
2018-09-13T14:56:21.253Z,23.90
2018-09-13T14:58:50.155Z,23.50
2018-09-13T15:01:19.080Z,23.60
2018-09-13T15:03:48.163Z,23.70
2018-09-13T15:06:17.096Z,23.80
2018-09-13T15:08:45.901Z,23.80
2018-09-13T15:11:14.844Z,23.70
2018-09-13T15:13:43.903Z,23.70
2018-09-13T15:16:12.876Z,23.50
2018-09-13T15:18:41.806Z,23.50
2018-09-13T15:21:10.679Z,23.50
2018-09-13T15:23:39.659Z,23.60
2018-09-13T15:26:08.716Z,23.60
2018-09-13T15:28:37.484Z,23.40
2018-09-13T15:31:06.558Z,23.40
2018-09-13T15:33:35.312Z,23.50
2018-09-13T15:36:04.177Z,23.50
2018-09-13T15:38:33.106Z,23.40
2018-09-13T15:41:02.072Z,23.30
2018-09-13T15:43:30.910Z,23.20
2018-09-13T15:45:59.864Z,23.40
2018-09-13T15:48:28.727Z,23.20
2018-09-13T15:50:57.606Z,23.20
2018-09-13T15:53:26.463Z,23.20
2018-09-13T15:55:55.241Z,23.10
2018-09-13T15:58:24.122Z,23.20
2018-09-13T16:00:52.861Z,23.30
2018-09-13T16:03:21.646Z,23.20
2018-09-13T16:05:50.531Z,23.20
2018-09-13T16:08:19.347Z,23.10
2018-09-13T16:10:48.268Z,23.10
2018-09-13T16:13:17.131Z,23.20
2018-09-13T16:15:45.876Z,23.00
2018-09-13T16:18:14.684Z,22.80
2018-09-13T16:20:44.873Z,22.80
2018-09-13T16:23:14.045Z,22.80
2018-09-13T16:25:43.868Z,22.80
2018-09-13T16:28:12.589Z,22.70
2018-09-13T16:30:41.360Z,22.70
2018-09-13T16:33:10.240Z,22.70
2018-09-13T16:35:46.710Z,22.70
2018-09-13T16:38:20.867Z,22.40
2018-09-13T16:40:55.054Z,22.20
2018-09-13T16:43:29.117Z,22.10
2018-09-13T16:45:58.098Z,22.00
2018-09-13T16:48:31.241Z,21.90
2018-09-13T16:51:00.115Z,21.90
2018-09-13T16:53:28.978Z,21.80
2018-09-13T16:55:57.676Z,21.70
2018-09-13T16:58:26.341Z,21.50
2018-09-13T17:00:55.158Z,21.60
2018-09-13T17:03:24.036Z,21.60
2018-09-13T17:05:52.924Z,21.50
2018-09-13T17:08:22.151Z,21.40
2018-09-13T17:10:50.885Z,21.30
2018-09-13T17:13:19.712Z,21.10
2018-09-13T17:15:48.632Z,21.00
2018-09-13T17:18:17.465Z,21.00
2018-09-13T17:20:46.347Z,20.80
2018-09-13T17:23:15.238Z,20.70
2018-09-13T17:25:44.089Z,20.60
2018-09-13T17:28:12.981Z,20.50
2018-09-13T17:30:41.764Z,20.40
2018-09-13T17:33:11.080Z,20.40
2018-09-13T17:35:40.068Z,20.10
2018-09-13T17:38:09.093Z,20.00
2018-09-13T17:40:38.092Z,20.10
2018-09-13T17:43:06.734Z,20.10
2018-09-13T17:45:38.335Z,19.90
2018-09-13T17:48:07.626Z,20.10
2018-09-13T17:50:37.779Z,20.00
2018-09-13T17:53:06.490Z,20.00
2018-09-13T17:55:38.736Z,19.70
2018-09-13T17:58:12.689Z,19.70
2018-09-13T18:00:42.285Z,19.70
2018-09-13T18:03:12.159Z,19.80
2018-09-13T18:05:41.062Z,19.60
2018-09-13T18:08:09.834Z,19.60
2018-09-13T18:10:38.627Z,19.60
2018-09-13T18:13:07.529Z,19.70
2018-09-13T18:15:36.267Z,19.70
2018-09-13T18:18:06.056Z,19.50
2018-09-13T18:20:34.775Z,19.40
2018-09-13T18:23:03.591Z,19.40
2018-09-13T18:25:32.228Z,19.30
2018-09-13T18:28:01.995Z,19.30
2018-09-13T18:30:31.707Z,19.20
2018-09-13T18:33:04.586Z,19.20
2018-09-13T18:35:34.843Z,19.20
2018-09-13T18:38:08.489Z,19.00
2018-09-13T18:40:39.729Z,18.80
2018-09-13T18:43:14.727Z,18.70
2018-09-13T18:45:51.063Z,18.70
2018-09-13T18:48:24.464Z,18.90
2018-09-13T18:50:59.433Z,18.90
2018-09-13T18:53:30.236Z,18.80
2018-09-13T18:56:02.879Z,18.60
2018-09-13T18:58:36.052Z,18.70
2018-09-13T19:01:08.850Z,18.70
2018-09-13T19:03:38.973Z,18.80
2018-09-13T19:06:11.580Z,18.70
2018-09-13T19:08:46.681Z,18.80
2018-09-13T19:11:18.476Z,18.70
2018-09-13T19:13:52.045Z,18.80
2018-09-13T19:16:25.232Z,18.70
2018-09-13T19:18:58.383Z,18.60
2018-09-13T19:21:31.126Z,18.70
2018-09-13T19:24:04.528Z,18.80
2018-09-13T19:26:38.022Z,18.60
2018-09-13T19:29:11.592Z,18.60
2018-09-13T19:31:45.627Z,18.60
2018-09-13T19:34:15.096Z,18.70
2018-09-13T19:36:44.781Z,18.60
2018-09-13T19:39:14.266Z,18.60
2018-09-13T19:41:44.230Z,18.60
2018-09-13T19:44:13.370Z,18.70
2018-09-13T19:46:42.315Z,18.50
2018-09-13T19:49:11.308Z,18.60
2018-09-13T19:51:40.440Z,18.50
2018-09-13T19:54:09.409Z,18.50
2018-09-13T19:56:38.426Z,18.40
2018-09-13T19:59:07.465Z,18.40
2018-09-13T20:01:36.448Z,18.60
2018-09-13T20:04:06.570Z,18.60
2018-09-13T20:06:35.556Z,18.60
2018-09-13T20:09:06.690Z,18.60
2018-09-13T20:11:35.729Z,18.50
2018-09-13T20:14:04.732Z,18.40
2018-09-13T20:16:33.670Z,18.40
2018-09-13T20:19:02.764Z,18.40
2018-09-13T20:21:31.724Z,18.40
2018-09-13T20:24:02.218Z,18.50
2018-09-13T20:26:31.283Z,18.40
2018-09-13T20:29:00.528Z,18.20
2018-09-13T20:31:29.413Z,18.10
2018-09-13T20:33:58.352Z,18.00
2018-09-13T20:36:27.303Z,17.80
2018-09-13T20:38:56.358Z,17.80
2018-09-13T20:41:25.362Z,17.80
2018-09-13T20:43:54.287Z,17.90
2018-09-13T20:46:23.193Z,18.10
2018-09-13T20:48:52.140Z,18.00
2018-09-13T20:51:21.044Z,18.10
2018-09-13T20:53:50.096Z,18.10
2018-09-13T20:56:19.865Z,18.20
2018-09-13T20:58:49.504Z,18.20
2018-09-13T21:01:18.339Z,18.00
2018-09-13T21:03:47.691Z,18.00
2018-09-13T21:06:16.580Z,18.00
2018-09-13T21:08:45.652Z,18.00
2018-09-13T21:11:14.392Z,17.90
2018-09-13T21:13:43.408Z,17.80
2018-09-13T21:16:12.185Z,17.80
2018-09-13T21:18:41.083Z,17.70
2018-09-13T21:21:09.927Z,17.60
2018-09-13T21:23:38.825Z,17.50
2018-09-13T21:26:07.717Z,17.50
2018-09-13T21:28:36.643Z,17.60
2018-09-13T21:31:06.576Z,17.60
2018-09-13T21:33:38.838Z,17.70
2018-09-13T21:36:10.474Z,17.80
2018-09-13T21:38:40.730Z,17.70
2018-09-13T21:41:11.070Z,17.80
2018-09-13T21:43:43.066Z,17.70
2018-09-13T21:46:14.803Z,17.70
2018-09-13T21:48:45.947Z,17.50
2018-09-13T21:51:18.176Z,17.40
2018-09-13T21:53:52.433Z,17.30
2018-09-13T21:56:24.885Z,17.30
2018-09-13T21:58:57.602Z,17.40
2018-09-13T22:01:30.942Z,17.50
2018-09-13T22:04:02.587Z,17.40
2018-09-13T22:06:32.604Z,17.40
2018-09-13T22:09:08.532Z,17.40
2018-09-13T22:11:43.254Z,17.30
2018-09-13T22:14:15.097Z,17.00
2018-09-13T22:16:46.377Z,17.00
2018-09-13T22:19:18.436Z,17.10
2018-09-13T22:21:52.494Z,17.10
2018-09-13T22:24:21.187Z,17.10
2018-09-13T22:26:49.816Z,17.00
2018-09-13T22:29:18.422Z,17.00
2018-09-13T22:31:46.962Z,17.10
2018-09-13T22:34:15.581Z,17.20
2018-09-13T22:36:44.130Z,17.30
2018-09-13T22:39:12.743Z,17.40
2018-09-13T22:41:41.296Z,17.40
2018-09-13T22:44:09.923Z,17.40
2018-09-13T22:46:38.529Z,17.20
2018-09-13T22:49:07.178Z,17.10
2018-09-13T22:51:35.778Z,17.00
2018-09-13T22:54:04.472Z,16.90
2018-09-13T22:56:33.057Z,17.00
2018-09-13T22:59:01.712Z,17.10
2018-09-13T23:01:30.319Z,17.10
2018-09-13T23:03:58.888Z,17.20
2018-09-13T23:06:27.440Z,17.10
2018-09-13T23:08:56.046Z,17.10
2018-09-13T23:11:24.616Z,16.90
2018-09-13T23:13:53.237Z,17.00
2018-09-13T23:16:21.803Z,17.10
2018-09-13T23:18:50.454Z,17.10
2018-09-13T23:21:19.091Z,17.10
2018-09-13T23:23:47.679Z,17.10
2018-09-13T23:26:16.231Z,16.90
2018-09-13T23:28:44.832Z,17.00
2018-09-13T23:31:13.398Z,17.00
2018-09-13T23:33:41.986Z,16.80
2018-09-13T23:36:10.588Z,16.70
2018-09-13T23:38:39.249Z,16.60
2018-09-13T23:41:07.866Z,16.50
2018-09-13T23:43:36.452Z,16.50
2018-09-13T23:46:05.104Z,16.70
2018-09-13T23:48:33.872Z,16.80
2018-09-13T23:51:02.892Z,16.70
2018-09-13T23:53:31.529Z,16.80
2018-09-13T23:56:00.172Z,16.70
2018-09-13T23:58:28.800Z,16.70
